sensor_id;sensor_type;location;lat;lon;timestamp;pressure;altitude;pressure_sealevel;temperature;humidity
55187;BME280;55457;52.002;5.464;2023-08-07T00:00:03;101103.09;;;22.38;64.35
55187;BME280;55457;52.002;5.464;2023-08-07T00:02:29;101105.81;;;22.38;64.26
55187;BME280;55457;52.002;5.464;2023-08-07T00:04:54;101097.66;;;22.38;64.27
55187;BME280;55457;52.002;5.464;2023-08-07T00:07:20;101093.31;;;22.37;64.16
55187;BME280;55457;52.002;5.464;2023-08-07T00:09:45;101100.38;;;22.38;64.35
55187;BME280;55457;52.002;5.464;2023-08-07T00:12:10;101100.38;;;22.38;64.29
55187;BME280;55457;52.002;5.464;2023-08-07T00:14:36;101105.81;;;22.38;64.43
55187;BME280;55457;52.002;5.464;2023-08-07T00:17:01;101110.16;;;22.39;64.77
55187;BME280;55457;52.002;5.464;2023-08-07T00:19:27;101113.16;;;22.37;64.25
55187;BME280;55457;52.002;5.464;2023-08-07T00:21:52;101102.28;;;22.37;64.47
55187;BME280;55457;52.002;5.464;2023-08-07T00:24:17;101105.81;;;22.38;64.50
55187;BME280;55457;52.002;5.464;2023-08-07T00:26:43;101104.19;;;22.37;64.46
55187;BME280;55457;52.002;5.464;2023-08-07T00:29:08;101096.84;;;22.37;64.52
55187;BME280;55457;52.002;5.464;2023-08-07T00:31:33;101099.56;;;22.37;64.33
55187;BME280;55457;52.002;5.464;2023-08-07T00:33:59;101102.28;;;22.37;64.35
55187;BME280;55457;52.002;5.464;2023-08-07T00:36:24;101107.72;;;22.37;64.51
55187;BME280;55457;52.002;5.464;2023-08-07T00:38:50;101111.25;;;22.38;64.36
55187;BME280;55457;52.002;5.464;2023-08-07T00:41:17;101112.31;;;22.37;64.62
55187;BME280;55457;52.002;5.464;2023-08-07T00:43:43;101109.59;;;22.37;64.44
55187;BME280;55457;52.002;5.464;2023-08-07T00:46:08;101108.78;;;22.36;64.34
55187;BME280;55457;52.002;5.464;2023-08-07T00:48:34;101107.97;;;22.36;64.30
55187;BME280;55457;52.002;5.464;2023-08-07T00:50:59;101102.28;;;22.37;64.36
55187;BME280;55457;52.002;5.464;2023-08-07T00:53:25;101099.56;;;22.37;64.56
55187;BME280;55457;52.002;5.464;2023-08-07T00:55:50;101104.19;;;22.37;64.70
55187;BME280;55457;52.002;5.464;2023-08-07T00:58:16;101108.53;;;22.38;64.72
55187;BME280;55457;52.002;5.464;2023-08-07T01:00:42;101103.09;;;22.38;64.61
55187;BME280;55457;52.002;5.464;2023-08-07T01:03:08;101105.25;;;22.36;64.42
55187;BME280;55457;52.002;5.464;2023-08-07T01:05:34;101093.31;;;22.37;64.25
55187;BME280;55457;52.002;5.464;2023-08-07T01:08:00;101107.97;;;22.36;64.35
55187;BME280;55457;52.002;5.464;2023-08-07T01:13:28;101095.22;;;22.36;64.57
55187;BME280;55457;52.002;5.464;2023-08-07T01:15:59;101102.53;;;22.36;64.23
55187;BME280;55457;52.002;5.464;2023-08-07T01:18:27;101099.00;;;22.35;64.25
55187;BME280;55457;52.002;5.464;2023-08-07T01:20:52;101102.53;;;22.36;64.72
55187;BME280;55457;52.002;5.464;2023-08-07T01:23:17;101100.91;;;22.35;64.25
55187;BME280;55457;52.002;5.464;2023-08-07T01:25:43;101100.91;;;22.35;64.35
55187;BME280;55457;52.002;5.464;2023-08-07T01:28:17;101107.97;;;22.36;64.59
55187;BME280;55457;52.002;5.464;2023-08-07T01:30:48;101100.91;;;22.35;64.22
55187;BME280;55457;52.002;5.464;2023-08-07T01:33:31;101115.53;;;22.34;64.08
55187;BME280;55457;52.002;5.464;2023-08-07T01:36:00;101111.75;;;22.35;64.46
55187;BME280;55457;52.002;5.464;2023-08-07T01:38:27;101111.75;;;22.35;63.97
55187;BME280;55457;52.002;5.464;2023-08-07T01:40:53;101109.28;;;22.33;64.22
55187;BME280;55457;52.002;5.464;2023-08-07T01:43:19;101115.53;;;22.34;64.09
55187;BME280;55457;52.002;5.464;2023-08-07T01:45:45;101114.72;;;22.33;64.12
55187;BME280;55457;52.002;5.464;2023-08-07T01:48:11;101110.09;;;22.34;64.17
55187;BME280;55457;52.002;5.464;2023-08-07T01:50:38;101113.88;;;22.33;64.31
55187;BME280;55457;52.002;5.464;2023-08-07T01:53:04;101111.16;;;22.33;64.17
55187;BME280;55457;52.002;5.464;2023-08-07T01:55:30;101112.25;;;22.32;64.27
55187;BME280;55457;52.002;5.464;2023-08-07T01:57:55;101122.84;;;22.33;64.16
55187;BME280;55457;52.002;5.464;2023-08-07T02:00:20;101119.31;;;22.33;64.17
55187;BME280;55457;52.002;5.464;2023-08-07T02:02:46;101122.03;;;22.33;64.13
55187;BME280;55457;52.002;5.464;2023-08-07T02:05:12;101132.91;;;22.33;63.97
55187;BME280;55457;52.002;5.464;2023-08-07T02:07:37;101130.19;;;22.33;64.04
55187;BME280;55457;52.002;5.464;2023-08-07T02:10:03;101122.03;;;22.33;64.19
55187;BME280;55457;52.002;5.464;2023-08-07T02:12:29;101122.28;;;22.31;64.21
55187;BME280;55457;52.002;5.464;2023-08-07T02:14:57;101119.31;;;22.33;64.17
55187;BME280;55457;52.002;5.464;2023-08-07T02:17:24;101127.47;;;22.33;64.11
55187;BME280;55457;52.002;5.464;2023-08-07T02:19:49;101118.50;;;22.32;64.47
55187;BME280;55457;52.002;5.464;2023-08-07T02:22:15;101121.47;;;22.31;64.15
55187;BME280;55457;52.002;5.464;2023-08-07T02:24:40;101118.50;;;22.32;63.85
55187;BME280;55457;52.002;5.464;2023-08-07T02:27:06;101129.38;;;22.32;64.19
55187;BME280;55457;52.002;5.464;2023-08-07T02:29:31;101128.53;;;22.32;64.19
55187;BME280;55457;52.002;5.464;2023-08-07T02:32:02;101131.25;;;22.32;63.98
55187;BME280;55457;52.002;5.464;2023-08-07T02:34:28;101126.91;;;22.31;63.79
55187;BME280;55457;52.002;5.464;2023-08-07T02:36:54;101119.56;;;22.31;63.97
55187;BME280;55457;52.002;5.464;2023-08-07T02:39:19;101127.72;;;22.31;64.11
55187;BME280;55457;52.002;5.464;2023-08-07T02:41:44;101125.81;;;22.32;63.68
55187;BME280;55457;52.002;5.464;2023-08-07T02:44:10;101126.91;;;22.31;64.08
55187;BME280;55457;52.002;5.464;2023-08-07T02:46:36;101120.66;;;22.30;64.04
55187;BME280;55457;52.002;5.464;2023-08-07T02:49:01;101126.91;;;22.31;63.79
55187;BME280;55457;52.002;5.464;2023-08-07T02:51:27;101121.47;;;22.31;63.73
55187;BME280;55457;52.002;5.464;2023-08-07T02:53:52;101120.66;;;22.30;63.91
55187;BME280;55457;52.002;5.464;2023-08-07T02:56:17;101125.25;;;22.30;63.70
55187;BME280;55457;52.002;5.464;2023-08-07T02:58:43;101126.09;;;22.30;64.01
55187;BME280;55457;52.002;5.464;2023-08-07T03:01:08;101126.91;;;22.31;63.78
55187;BME280;55457;52.002;5.464;2023-08-07T03:03:34;101122.56;;;22.30;63.88
55187;BME280;55457;52.002;5.464;2023-08-07T03:06:00;101131.75;;;22.29;63.59
55187;BME280;55457;52.002;5.464;2023-08-07T03:08:25;101126.31;;;22.29;63.90
55187;BME280;55457;52.002;5.464;2023-08-07T03:10:52;101136.94;;;22.30;63.78
55187;BME280;55457;52.002;5.464;2023-08-07T03:13:18;101134.47;;;22.29;63.65
55187;BME280;55457;52.002;5.464;2023-08-07T03:15:43;101135.31;;;22.29;63.80
55187;BME280;55457;52.002;5.464;2023-08-07T03:18:09;101143.44;;;22.29;63.94
55187;BME280;55457;52.002;5.464;2023-08-07T03:20:36;101136.13;;;22.30;63.47
55187;BME280;55457;52.002;5.464;2023-08-07T03:23:01;101142.59;;;22.29;63.58
55187;BME280;55457;52.002;5.464;2023-08-07T03:25:27;101141.56;;;22.30;63.91
55187;BME280;55457;52.002;5.464;2023-08-07T03:27:52;101139.88;;;22.29;63.62
55187;BME280;55457;52.002;5.464;2023-08-07T03:30:17;101144.28;;;22.30;63.57
55187;BME280;55457;52.002;5.464;2023-08-07T03:32:43;101135.31;;;22.29;63.93
55187;BME280;55457;52.002;5.464;2023-08-07T03:35:09;101147.00;;;22.30;64.01
55187;BME280;55457;52.002;5.464;2023-08-07T03:37:34;101146.41;;;22.28;63.64
55187;BME280;55457;52.002;5.464;2023-08-07T03:39:59;101140.75;;;22.29;63.57
55187;BME280;55457;52.002;5.464;2023-08-07T03:42:25;101139.88;;;22.29;63.54
55187;BME280;55457;52.002;5.464;2023-08-07T03:44:50;101141.78;;;22.28;63.54
55187;BME280;55457;52.002;5.464;2023-08-07T03:47:15;101136.34;;;22.28;63.59
55187;BME280;55457;52.002;5.464;2023-08-07T03:49:41;101130.09;;;22.28;63.55
55187;BME280;55457;52.002;5.464;2023-08-07T03:52:06;101120.06;;;22.28;63.75
55187;BME280;55457;52.002;5.464;2023-08-07T03:54:32;101129.03;;;22.29;63.85
55187;BME280;55457;52.002;5.464;2023-08-07T03:56:57;101127.38;;;22.28;63.59
55187;BME280;55457;52.002;5.464;2023-08-07T03:59:22;101128.22;;;22.28;63.74
55187;BME280;55457;52.002;5.464;2023-08-07T04:01:48;101132.81;;;22.28;63.81
55187;BME280;55457;52.002;5.464;2023-08-07T04:04:13;101136.59;;;22.27;63.73
55187;BME280;55457;52.002;5.464;2023-08-07T04:06:39;101127.38;;;22.28;63.78
55187;BME280;55457;52.002;5.464;2023-08-07T04:09:04;101126.56;;;22.27;63.71
55187;BME280;55457;52.002;5.464;2023-08-07T04:11:29;101135.78;;;22.26;63.72
55187;BME280;55457;52.002;5.464;2023-08-07T04:13:55;101132.81;;;22.28;63.53
55187;BME280;55457;52.002;5.464;2023-08-07T04:16:20;101136.59;;;22.27;63.81
55187;BME280;55457;52.002;5.464;2023-08-07T04:18:45;101142.84;;;22.27;63.69
55187;BME280;55457;52.002;5.464;2023-08-07T04:21:11;101139.31;;;22.27;63.42
55187;BME280;55457;52.002;5.464;2023-08-07T04:23:36;101138.25;;;22.28;63.45
55187;BME280;55457;52.002;5.464;2023-08-07T04:26:01;101147.47;;;22.27;63.80
55187;BME280;55457;52.002;5.464;2023-08-07T04:28:28;101142.03;;;22.27;63.56
55187;BME280;55457;52.002;5.464;2023-08-07T04:30:54;101142.03;;;22.27;63.68
55187;BME280;55457;52.002;5.464;2023-08-07T04:33:20;101131.19;;;22.27;63.69
55187;BME280;55457;52.002;5.464;2023-08-07T04:35:45;101145.84;;;22.26;63.83
55187;BME280;55457;52.002;5.464;2023-08-07T04:38:15;101151.25;;;22.26;63.82
55187;BME280;55457;52.002;5.464;2023-08-07T04:40:45;101152.91;;;22.27;63.79
55187;BME280;55457;52.002;5.464;2023-08-07T04:43:11;101156.44;;;22.27;63.80
55187;BME280;55457;52.002;5.464;2023-08-07T04:45:36;101151.25;;;22.26;63.73
55187;BME280;55457;52.002;5.464;2023-08-07T04:48:03;101154.78;;;22.26;63.58
55187;BME280;55457;52.002;5.464;2023-08-07T04:50:29;101159.41;;;22.26;63.67
55187;BME280;55457;52.002;5.464;2023-08-07T04:52:54;101165.66;;;22.26;63.31
55187;BME280;55457;52.002;5.464;2023-08-07T04:55:20;101157.78;;;22.25;63.62
55187;BME280;55457;52.002;5.464;2023-08-07T04:57:45;101164.84;;;22.26;63.67
55187;BME280;55457;52.002;5.464;2023-08-07T05:00:12;101162.13;;;22.26;63.40
55187;BME280;55457;52.002;5.464;2023-08-07T05:02:37;101165.66;;;22.26;63.60
55187;BME280;55457;52.002;5.464;2023-08-07T05:05:03;101157.50;;;22.26;63.62
55187;BME280;55457;52.002;5.464;2023-08-07T05:07:29;101159.41;;;22.26;63.63
55187;BME280;55457;52.002;5.464;2023-08-07T05:09:54;101168.63;;;22.25;63.36
55187;BME280;55457;52.002;5.464;2023-08-07T05:12:20;101170.28;;;22.26;63.67
55187;BME280;55457;52.002;5.464;2023-08-07T05:14:45;101172.16;;;22.25;63.48
55187;BME280;55457;52.002;5.464;2023-08-07T05:17:10;101171.34;;;22.25;63.64
55187;BME280;55457;52.002;5.464;2023-08-07T05:19:38;101183.03;;;22.25;63.67
55187;BME280;55457;52.002;5.464;2023-08-07T05:22:03;101176.78;;;22.25;63.35
55187;BME280;55457;52.002;5.464;2023-08-07T05:24:29;101188.44;;;22.25;63.76
55187;BME280;55457;52.002;5.464;2023-08-07T05:26:59;101191.16;;;22.25;63.67
55187;BME280;55457;52.002;5.464;2023-08-07T05:29:24;101187.63;;;22.25;63.41
55187;BME280;55457;52.002;5.464;2023-08-07T05:31:50;101189.53;;;22.24;63.71
55187;BME280;55457;52.002;5.464;2023-08-07T05:34:15;101193.06;;;22.25;63.31
55187;BME280;55457;52.002;5.464;2023-08-07T05:36:40;101190.34;;;22.25;63.59
55187;BME280;55457;52.002;5.464;2023-08-07T05:39:06;101196.59;;;22.25;63.52
55187;BME280;55457;52.002;5.464;2023-08-07T05:41:32;101199.53;;;22.24;63.57
55187;BME280;55457;52.002;5.464;2023-08-07T05:43:57;101200.63;;;22.23;63.54
55187;BME280;55457;52.002;5.464;2023-08-07T05:46:23;101206.63;;;22.25;63.07
55187;BME280;55457;52.002;5.464;2023-08-07T05:48:48;101210.41;;;22.24;63.53
55187;BME280;55457;52.002;5.464;2023-08-07T05:51:13;101215.00;;;22.23;63.69
55187;BME280;55457;52.002;5.464;2023-08-07T05:53:39;101223.97;;;22.24;63.65
55187;BME280;55457;52.002;5.464;2023-08-07T05:56:04;101232.13;;;22.24;64.28
55187;BME280;55457;52.002;5.464;2023-08-07T05:58:29;101228.34;;;22.25;64.95
55187;BME280;55457;52.002;5.464;2023-08-07T06:00:55;101226.94;;;22.22;65.80
55187;BME280;55457;52.002;5.464;2023-08-07T06:03:21;101229.41;;;22.24;66.03
55187;BME280;55457;52.002;5.464;2023-08-07T06:05:46;101227.53;;;22.24;66.43
55187;BME280;55457;52.002;5.464;2023-08-07T06:08:11;101227.53;;;22.24;67.00
55187;BME280;55457;52.002;5.464;2023-08-07T06:10:37;101234.81;;;22.24;66.60
55187;BME280;55457;52.002;5.464;2023-08-07T06:13:02;101240.25;;;22.24;66.48
55187;BME280;55457;52.002;5.464;2023-08-07T06:15:30;101236.72;;;22.23;65.78
55187;BME280;55457;52.002;5.464;2023-08-07T06:17:56;101239.44;;;22.23;65.71
55187;BME280;55457;52.002;5.464;2023-08-07T06:20:21;101243.22;;;22.22;65.35
55187;BME280;55457;52.002;5.464;2023-08-07T06:22:46;101251.13;;;22.24;65.22
55187;BME280;55457;52.002;5.464;2023-08-07T06:25:12;101245.69;;;22.24;64.98
55187;BME280;55457;52.002;5.464;2023-08-07T06:27:37;101252.19;;;22.23;64.96
55187;BME280;55457;52.002;5.464;2023-08-07T06:30:03;101245.69;;;22.24;64.91
55187;BME280;55457;52.002;5.464;2023-08-07T06:32:28;101248.66;;;22.22;64.97
55187;BME280;55457;52.002;5.464;2023-08-07T06:34:53;101253.84;;;22.24;65.04
55187;BME280;55457;52.002;5.464;2023-08-07T06:37:19;101255.50;;;22.25;65.03
55187;BME280;55457;52.002;5.464;2023-08-07T06:39:45;101245.69;;;22.24;64.94
55187;BME280;55457;52.002;5.464;2023-08-07T06:42:11;101255.50;;;22.25;64.76
55187;BME280;55457;52.002;5.464;2023-08-07T06:44:37;101260.94;;;22.25;65.01
55187;BME280;55457;52.002;5.464;2023-08-07T06:47:02;101251.13;;;22.24;65.12
55187;BME280;55457;52.002;5.464;2023-08-07T06:49:28;101260.13;;;22.24;65.00
55187;BME280;55457;52.002;5.464;2023-08-07T06:51:54;101256.56;;;22.24;64.83
55187;BME280;55457;52.002;5.464;2023-08-07T06:54:19;101259.25;;;22.24;64.51
55187;BME280;55457;52.002;5.464;2023-08-07T06:56:44;101272.63;;;22.25;64.84
55187;BME280;55457;52.002;5.464;2023-08-07T06:59:10;101265.28;;;22.26;64.89
55187;BME280;55457;52.002;5.464;2023-08-07T07:01:35;101278.88;;;22.26;64.89
55187;BME280;55457;52.002;5.464;2023-08-07T07:04:01;101269.91;;;22.25;64.39
55187;BME280;55457;52.002;5.464;2023-08-07T07:06:26;101277.78;;;22.27;64.42
55187;BME280;55457;52.002;5.464;2023-08-07T07:08:52;101277.78;;;22.27;64.80
55187;BME280;55457;52.002;5.464;2023-08-07T07:11:21;101275.34;;;22.25;64.57
55187;BME280;55457;52.002;5.464;2023-08-07T07:13:49;101276.97;;;22.26;64.85
55187;BME280;55457;52.002;5.464;2023-08-07T07:16:17;101286.75;;;22.27;64.54
55187;BME280;55457;52.002;5.464;2023-08-07T07:18:43;101285.38;;;22.25;64.30
55187;BME280;55457;52.002;5.464;2023-08-07T07:21:08;101300.00;;;22.24;64.60
55187;BME280;55457;52.002;5.464;2023-08-07T07:23:33;101304.59;;;22.23;64.46
55187;BME280;55457;52.002;5.464;2023-08-07T07:25:59;101314.41;;;22.24;64.46
55187;BME280;55457;52.002;5.464;2023-08-07T07:28:24;101316.28;;;22.24;65.02
55187;BME280;55457;52.002;5.464;2023-08-07T07:30:50;101307.31;;;22.23;64.83
55187;BME280;55457;52.002;5.464;2023-08-07T07:33:16;101320.88;;;22.23;64.35
55187;BME280;55457;52.002;5.464;2023-08-07T07:35:41;101317.94;;;22.25;64.51
55187;BME280;55457;52.002;5.464;2023-08-07T07:38:07;101314.97;;;22.26;64.92
55187;BME280;55457;52.002;5.464;2023-08-07T07:40:34;101311.19;;;22.27;64.89
55187;BME280;55457;52.002;5.464;2023-08-07T07:42:59;101320.75;;;22.30;64.51
55187;BME280;55457;52.002;5.464;2023-08-07T07:45:24;101318.59;;;22.32;64.95
55187;BME280;55457;52.002;5.464;2023-08-07T07:47:50;101329.22;;;22.33;64.64
55187;BME280;55457;52.002;5.464;2023-08-07T07:50:15;101332.28;;;22.37;64.83
55187;BME280;55457;52.002;5.464;2023-08-07T07:52:40;101334.16;;;22.36;64.98
55187;BME280;55457;52.002;5.464;2023-08-07T07:55:06;101335.56;;;22.39;64.77
55187;BME280;55457;52.002;5.464;2023-08-07T07:57:33;101335.34;;;22.40;64.69
55187;BME280;55457;52.002;5.464;2023-08-07T07:59:59;101329.66;;;22.42;64.61
55187;BME280;55457;52.002;5.464;2023-08-07T08:02:24;101331.53;;;22.42;64.73
55187;BME280;55457;52.002;5.464;2023-08-07T08:04:51;101341.06;;;22.44;64.58
55187;BME280;55457;52.002;5.464;2023-08-07T08:07:16;101334.59;;;22.45;64.82
55187;BME280;55457;52.002;5.464;2023-08-07T08:09:42;101343.31;;;22.47;64.73
55187;BME280;55457;52.002;5.464;2023-08-07T08:12:07;101337.88;;;22.47;64.88
55187;BME280;55457;52.002;5.464;2023-08-07T08:14:33;101342.25;;;22.48;64.48
55187;BME280;55457;52.002;5.464;2023-08-07T08:16:59;101342.00;;;22.50;64.51
55187;BME280;55457;52.002;5.464;2023-08-07T08:19:24;101357.25;;;22.51;64.66
55187;BME280;55457;52.002;5.464;2023-08-07T08:21:49;101349.31;;;22.49;64.55
55187;BME280;55457;52.002;5.464;2023-08-07T08:24:15;101361.25;;;22.48;64.55
55187;BME280;55457;52.002;5.464;2023-08-07T08:26:40;101361.25;;;22.48;64.56
55187;BME280;55457;52.002;5.464;2023-08-07T08:29:06;101363.41;;;22.46;64.13
55187;BME280;55457;52.002;5.464;2023-08-07T08:31:33;101367.75;;;22.47;64.12
55187;BME280;55457;52.002;5.464;2023-08-07T08:33:58;101362.91;;;22.49;64.18
55187;BME280;55457;52.002;5.464;2023-08-07T08:36:24;101361.59;;;22.52;63.93
55187;BME280;55457;52.002;5.464;2023-08-07T08:38:49;101366.53;;;22.55;63.86
55187;BME280;55457;52.002;5.464;2023-08-07T08:41:16;101368.66;;;22.53;63.87
55187;BME280;55457;52.002;5.464;2023-08-07T08:43:46;101372.47;;;22.52;63.68
55187;BME280;55457;52.002;5.464;2023-08-07T08:46:14;101365.59;;;22.49;63.63
55187;BME280;55457;52.002;5.464;2023-08-07T08:48:44;101370.00;;;22.50;63.45
55187;BME280;55457;52.002;5.464;2023-08-07T08:51:12;101376.47;;;22.49;63.41
55187;BME280;55457;52.002;5.464;2023-08-07T08:53:39;101367.03;;;22.52;63.67
55187;BME280;55457;52.002;5.464;2023-08-07T08:56:05;101378.25;;;22.55;63.51
55187;BME280;55457;52.002;5.464;2023-08-07T08:58:31;101384.16;;;22.52;63.66
55187;BME280;55457;52.002;5.464;2023-08-07T09:00:57;101379.78;;;22.51;63.58
55187;BME280;55457;52.002;5.464;2023-08-07T09:03:23;101376.25;;;22.51;63.48
55187;BME280;55457;52.002;5.464;2023-08-07T09:05:52;101386.28;;;22.50;63.17
55187;BME280;55457;52.002;5.464;2023-08-07T09:08:18;101394.91;;;22.47;63.13
55187;BME280;55457;52.002;5.464;2023-08-07T09:10:44;101398.72;;;22.46;63.06
55187;BME280;55457;52.002;5.464;2023-08-07T09:13:13;101403.06;;;22.47;63.40
55187;BME280;55457;52.002;5.464;2023-08-07T09:15:39;101401.75;;;22.50;62.87
55187;BME280;55457;52.002;5.464;2023-08-07T09:18:06;101413.47;;;22.50;63.25
55187;BME280;55457;52.002;5.464;2023-08-07T09:20:37;101417.22;;;22.49;63.12
55187;BME280;55457;52.002;5.464;2023-08-07T09:23:04;101413.47;;;22.50;62.75
55187;BME280;55457;52.002;5.464;2023-08-07T09:25:31;101422.44;;;22.51;62.57
55187;BME280;55457;52.002;5.464;2023-08-07T09:27:58;101424.31;;;22.50;62.57
55187;BME280;55457;52.002;5.464;2023-08-07T09:30:28;101433.03;;;22.52;62.43
55187;BME280;55457;52.002;5.464;2023-08-07T09:32:56;101441.28;;;22.57;62.37
55187;BME280;55457;52.002;5.464;2023-08-07T09:35:21;101423.09;;;22.58;62.29
55187;BME280;55457;52.002;5.464;2023-08-07T09:37:46;101445.63;;;22.58;62.43
55187;BME280;55457;52.002;5.464;2023-08-07T09:40:12;101437.75;;;22.57;62.04
55187;BME280;55457;52.002;5.464;2023-08-07T09:42:40;101441.28;;;22.57;62.24
55187;BME280;55457;52.002;5.464;2023-08-07T09:45:19;101438.31;;;22.59;61.94
55187;BME280;55457;52.002;5.464;2023-08-07T09:47:45;101442.44;;;22.61;61.69
55187;BME280;55457;52.002;5.464;2023-08-07T09:50:16;101444.66;;;22.64;62.06
55187;BME280;55457;52.002;5.464;2023-08-07T09:52:48;101432.72;;;22.65;61.68
55187;BME280;55457;52.002;5.464;2023-08-07T09:55:14;101433.78;;;22.64;61.81
55187;BME280;55457;52.002;5.464;2023-08-07T09:57:42;101429.44;;;22.63;61.88
55187;BME280;55457;52.002;5.464;2023-08-07T10:00:08;101440.31;;;22.63;61.83
55187;BME280;55457;52.002;5.464;2023-08-07T10:02:37;101439.22;;;22.64;61.50
55187;BME280;55457;52.002;5.464;2023-08-07T10:05:04;101440.31;;;22.63;61.49
55187;BME280;55457;52.002;5.464;2023-08-07T10:07:30;101438.66;;;22.62;61.50
55187;BME280;55457;52.002;5.464;2023-08-07T10:09:56;101447.06;;;22.61;61.29
55187;BME280;55457;52.002;5.464;2023-08-07T10:12:23;101448.34;;;22.58;62.28
55187;BME280;55457;52.002;5.464;2023-08-07T10:14:50;101468.44;;;22.57;61.96
55187;BME280;55457;52.002;5.464;2023-08-07T10:17:15;101461.38;;;22.56;61.95
55187;BME280;55457;52.002;5.464;2023-08-07T10:19:43;101471.88;;;22.53;61.78
55187;BME280;55457;52.002;5.464;2023-08-07T10:22:09;101468.34;;;22.52;62.20
55187;BME280;55457;52.002;5.464;2023-08-07T10:24:38;101471.06;;;22.52;62.45
55187;BME280;55457;52.002;5.464;2023-08-07T10:27:07;101467.03;;;22.55;62.32
55187;BME280;55457;52.002;5.464;2023-08-07T10:29:33;101462.19;;;22.57;62.31
55187;BME280;55457;52.002;5.464;2023-08-07T10:32:01;101468.44;;;22.57;62.18
55187;BME280;55457;52.002;5.464;2023-08-07T10:34:33;101468.63;;;22.67;61.87
55187;BME280;55457;52.002;5.464;2023-08-07T10:36:58;101463.56;;;22.71;61.98
55187;BME280;55457;52.002;5.464;2023-08-07T10:39:24;101458.78;;;22.78;61.89
55187;BME280;55457;52.002;5.464;2023-08-07T10:41:53;101467.38;;;22.87;61.75
55187;BME280;55457;52.002;5.464;2023-08-07T10:44:20;101456.84;;;22.90;61.68
55187;BME280;55457;52.002;5.464;2023-08-07T10:46:56;101458.00;;;22.95;61.98
55187;BME280;55457;52.002;5.464;2023-08-07T10:49:39;101474.06;;;22.96;61.57
55187;BME280;55457;52.002;5.464;2023-08-07T10:52:11;101469.69;;;22.95;61.56
55187;BME280;55457;52.002;5.464;2023-08-07T10:54:41;101475.13;;;22.95;61.31
55187;BME280;55457;52.002;5.464;2023-08-07T10:57:11;101477.28;;;22.93;60.90
55187;BME280;55457;52.002;5.464;2023-08-07T10:59:37;101487.56;;;22.91;60.92
55187;BME280;55457;52.002;5.464;2023-08-07T11:02:07;101480.47;;;22.90;60.53
55187;BME280;55457;52.002;5.464;2023-08-07T11:04:36;101494.06;;;22.90;60.94
55187;BME280;55457;52.002;5.464;2023-08-07T11:07:02;101497.38;;;22.92;60.64
55187;BME280;55457;52.002;5.464;2023-08-07T11:09:28;101497.38;;;22.92;60.65
55187;BME280;55457;52.002;5.464;2023-08-07T11:11:53;101490.28;;;22.91;60.72
55187;BME280;55457;52.002;5.464;2023-08-07T11:14:19;101484.00;;;22.90;60.55
55187;BME280;55457;52.002;5.464;2023-08-07T11:16:46;101488.97;;;22.94;60.27
55187;BME280;55457;52.002;5.464;2023-08-07T11:19:14;101487.34;;;22.92;59.92
55187;BME280;55457;52.002;5.464;2023-08-07T11:21:40;101492.75;;;22.92;60.05
55187;BME280;55457;52.002;5.464;2023-08-07T11:24:07;101493.25;;;22.89;60.55
55187;BME280;55457;52.002;5.464;2023-08-07T11:26:33;101495.38;;;22.87;60.25
55187;BME280;55457;52.002;5.464;2023-08-07T11:28:58;101492.88;;;22.86;60.36
55187;BME280;55457;52.002;5.464;2023-08-07T11:31:24;101495.38;;;22.87;60.52
55187;BME280;55457;52.002;5.464;2023-08-07T11:33:55;101497.84;;;22.89;60.33
55187;BME280;55457;52.002;5.464;2023-08-07T11:36:22;101484.00;;;22.90;60.53
55187;BME280;55457;52.002;5.464;2023-08-07T11:38:47;101492.41;;;22.89;60.59
55187;BME280;55457;52.002;5.464;2023-08-07T11:41:14;101494.53;;;22.87;60.48
55187;BME280;55457;52.002;5.464;2023-08-07T11:43:41;101500.44;;;22.84;60.57
55187;BME280;55457;52.002;5.464;2023-08-07T11:46:12;101495.00;;;22.84;61.18
55187;BME280;55457;52.002;5.464;2023-08-07T11:48:39;101498.81;;;22.83;60.97
55187;BME280;55457;52.002;5.464;2023-08-07T11:51:05;101505.88;;;22.84;60.93
55187;BME280;55457;52.002;5.464;2023-08-07T11:53:33;101502.69;;;22.87;60.82
55187;BME280;55457;52.002;5.464;2023-08-07T11:56:01;101500.91;;;22.92;60.79
55187;BME280;55457;52.002;5.464;2023-08-07T11:58:33;101490.97;;;22.98;60.63
55187;BME280;55457;52.002;5.464;2023-08-07T12:01:03;101497.41;;;23.09;60.61
55187;BME280;55457;52.002;5.464;2023-08-07T12:03:31;101481.31;;;23.07;60.41
55187;BME280;55457;52.002;5.464;2023-08-07T12:05:58;101488.41;;;23.08;60.48
55187;BME280;55457;52.002;5.464;2023-08-07T12:08:42;101478.44;;;23.14;60.31
55187;BME280;55457;52.002;5.464;2023-08-07T12:11:12;101490.63;;;23.11;60.12
55187;BME280;55457;52.002;5.464;2023-08-07T12:13:39;101488.97;;;23.10;60.15
55187;BME280;55457;52.002;5.464;2023-08-07T12:16:07;101478.44;;;23.14;59.56
55187;BME280;55457;52.002;5.464;2023-08-07T12:18:34;101475.13;;;23.12;60.09
55187;BME280;55457;52.002;5.464;2023-08-07T12:21:02;101496.88;;;23.12;60.09
55187;BME280;55457;52.002;5.464;2023-08-07T12:23:28;101473.75;;;23.09;59.94
55187;BME280;55457;52.002;5.464;2023-08-07T12:25:54;101489.31;;;23.14;59.53
55187;BME280;55457;52.002;5.464;2023-08-07T12:28:20;101487.50;;;23.20;59.78
55187;BME280;55457;52.002;5.464;2023-08-07T12:30:46;101497.56;;;23.19;59.91
55187;BME280;55457;52.002;5.464;2023-08-07T12:33:12;101493.44;;;23.16;59.96
55187;BME280;55457;52.002;5.464;2023-08-07T12:35:38;101497.22;;;23.15;59.94
55187;BME280;55457;52.002;5.464;2023-08-07T12:38:03;101498.47;;;23.25;59.81
55187;BME280;55457;52.002;5.464;2023-08-07T12:40:31;101495.25;;;23.28;59.84
55187;BME280;55457;52.002;5.464;2023-08-07T12:42:58;101491.13;;;23.25;59.71
55187;BME280;55457;52.002;5.464;2023-08-07T12:45:23;101498.47;;;23.25;59.52
55187;BME280;55457;52.002;5.464;2023-08-07T12:47:49;101489.31;;;23.31;59.20